sensor_id;sensor_type;location;lat;lon;timestamp;P1;durP1;ratioP1;P2;durP2;ratioP2
21162;SDS011;10739;52.198;20.908;2023-03-16T00:00:15;31.10;;;14.13;;
21162;SDS011;10739;52.198;20.908;2023-03-16T00:02:42;39.50;;;14.80;;
21162;SDS011;10739;52.198;20.908;2023-03-16T00:05:10;30.40;;;14.40;;
21162;SDS011;10739;52.198;20.908;2023-03-16T00:07:38;33.75;;;14.40;;
21162;SDS011;10739;52.198;20.908;2023-03-16T00:10:06;28.63;;;13.45;;
21162;SDS011;10739;52.198;20.908;2023-03-16T00:12:41;35.00;;;14.20;;
21162;SDS011;10739;52.198;20.908;2023-03-16T00:15:08;34.63;;;14.38;;
21162;SDS011;10739;52.198;20.908;2023-03-16T00:17:34;33.53;;;14.00;;
21162;SDS011;10739;52.198;20.908;2023-03-16T00:20:01;32.20;;;13.43;;
21162;SDS011;10739;52.198;20.908;2023-03-16T00:22:31;34.03;;;13.73;;
21162;SDS011;10739;52.198;20.908;2023-03-16T00:24:58;34.38;;;14.43;;
21162;SDS011;10739;52.198;20.908;2023-03-16T00:27:25;31.70;;;13.23;;
21162;SDS011;10739;52.198;20.908;2023-03-16T00:29:52;31.13;;;13.40;;
21162;SDS011;10739;52.198;20.908;2023-03-16T00:32:23;28.98;;;13.10;;
21162;SDS011;10739;52.198;20.908;2023-03-16T00:34:52;34.10;;;13.27;;
21162;SDS011;10739;52.198;20.908;2023-03-16T00:37:21;35.30;;;13.32;;
21162;SDS011;10739;52.198;20.908;2023-03-16T00:39:49;31.20;;;13.10;;
21162;SDS011;10739;52.198;20.908;2023-03-16T00:42:20;29.40;;;12.18;;
21162;SDS011;10739;52.198;20.908;2023-03-16T00:44:54;25.20;;;12.45;;
21162;SDS011;10739;52.198;20.908;2023-03-16T00:47:26;26.20;;;11.65;;
21162;SDS011;10739;52.198;20.908;2023-03-16T00:49:57;25.13;;;12.60;;
21162;SDS011;10739;52.198;20.908;2023-03-16T00:52:25;31.05;;;13.13;;
21162;SDS011;10739;52.198;20.908;2023-03-16T00:54:53;25.33;;;12.32;;
21162;SDS011;10739;52.198;20.908;2023-03-16T00:57:21;28.83;;;12.85;;
21162;SDS011;10739;52.198;20.908;2023-03-16T00:59:49;28.10;;;12.48;;
21162;SDS011;10739;52.198;20.908;2023-03-16T01:02:16;27.88;;;11.88;;
21162;SDS011;10739;52.198;20.908;2023-03-16T01:04:47;32.33;;;13.68;;
21162;SDS011;10739;52.198;20.908;2023-03-16T01:07:14;31.48;;;12.20;;
21162;SDS011;10739;52.198;20.908;2023-03-16T01:09:41;25.30;;;12.10;;
21162;SDS011;10739;52.198;20.908;2023-03-16T01:12:12;24.13;;;11.52;;
21162;SDS011;10739;52.198;20.908;2023-03-16T01:14:41;27.27;;;11.93;;
21162;SDS011;10739;52.198;20.908;2023-03-16T01:17:10;26.08;;;12.02;;
21162;SDS011;10739;52.198;20.908;2023-03-16T01:19:38;27.85;;;13.02;;
21162;SDS011;10739;52.198;20.908;2023-03-16T01:22:06;30.35;;;11.50;;
21162;SDS011;10739;52.198;20.908;2023-03-16T01:24:34;34.17;;;11.70;;
21162;SDS011;10739;52.198;20.908;2023-03-16T01:27:01;28.65;;;12.75;;
21162;SDS011;10739;52.198;20.908;2023-03-16T01:29:29;30.90;;;12.15;;
21162;SDS011;10739;52.198;20.908;2023-03-16T01:31:56;31.83;;;13.50;;
21162;SDS011;10739;52.198;20.908;2023-03-16T01:34:22;31.02;;;12.07;;
21162;SDS011;10739;52.198;20.908;2023-03-16T01:36:49;27.73;;;12.18;;
21162;SDS011;10739;52.198;20.908;2023-03-16T01:39:15;26.63;;;12.23;;
21162;SDS011;10739;52.198;20.908;2023-03-16T01:41:45;31.73;;;14.02;;
21162;SDS011;10739;52.198;20.908;2023-03-16T01:44:13;28.38;;;13.05;;
21162;SDS011;10739;52.198;20.908;2023-03-16T01:46:57;28.52;;;13.45;;
21162;SDS011;10739;52.198;20.908;2023-03-16T01:49:24;25.80;;;12.20;;
21162;SDS011;10739;52.198;20.908;2023-03-16T01:51:58;36.53;;;13.90;;
21162;SDS011;10739;52.198;20.908;2023-03-16T01:57:17;26.92;;;12.48;;
21162;SDS011;10739;52.198;20.908;2023-03-16T01:59:50;30.13;;;13.70;;
21162;SDS011;10739;52.198;20.908;2023-03-16T02:02:42;31.25;;;13.45;;
21162;SDS011;10739;52.198;20.908;2023-03-16T02:05:33;32.70;;;13.75;;
21162;SDS011;10739;52.198;20.908;2023-03-16T02:08:17;29.38;;;13.18;;
21162;SDS011;10739;52.198;20.908;2023-03-16T02:10:47;32.83;;;15.50;;
21162;SDS011;10739;52.198;20.908;2023-03-16T02:13:13;34.92;;;14.60;;
21162;SDS011;10739;52.198;20.908;2023-03-16T02:15:40;42.72;;;15.52;;
21162;SDS011;10739;52.198;20.908;2023-03-16T02:18:06;34.38;;;15.38;;
21162;SDS011;10739;52.198;20.908;2023-03-16T02:20:56;32.72;;;13.90;;
21162;SDS011;10739;52.198;20.908;2023-03-16T02:23:41;30.23;;;13.07;;
21162;SDS011;10739;52.198;20.908;2023-03-16T02:32:28;31.33;;;14.18;;
21162;SDS011;10739;52.198;20.908;2023-03-16T02:34:56;31.85;;;14.02;;
21162;SDS011;10739;52.198;20.908;2023-03-16T02:37:26;35.53;;;14.85;;
21162;SDS011;10739;52.198;20.908;2023-03-16T02:39:54;32.92;;;13.57;;
21162;SDS011;10739;52.198;20.908;2023-03-16T02:42:24;32.95;;;13.77;;
21162;SDS011;10739;52.198;20.908;2023-03-16T02:44:56;34.80;;;14.57;;
21162;SDS011;10739;52.198;20.908;2023-03-16T02:50:02;27.92;;;13.70;;
21162;SDS011;10739;52.198;20.908;2023-03-16T02:52:32;31.35;;;13.57;;
21162;SDS011;10739;52.198;20.908;2023-03-16T02:55:00;36.05;;;14.18;;
21162;SDS011;10739;52.198;20.908;2023-03-16T02:57:26;35.60;;;14.98;;
21162;SDS011;10739;52.198;20.908;2023-03-16T02:59:53;38.78;;;14.90;;
21162;SDS011;10739;52.198;20.908;2023-03-16T03:02:19;37.08;;;16.00;;
21162;SDS011;10739;52.198;20.908;2023-03-16T03:04:45;31.95;;;15.00;;
21162;SDS011;10739;52.198;20.908;2023-03-16T03:07:13;38.35;;;15.48;;
21162;SDS011;10739;52.198;20.908;2023-03-16T03:09:40;29.30;;;15.27;;
21162;SDS011;10739;52.198;20.908;2023-03-16T03:12:09;34.38;;;15.65;;
21162;SDS011;10739;52.198;20.908;2023-03-16T03:14:37;38.92;;;15.02;;
21162;SDS011;10739;52.198;20.908;2023-03-16T03:17:08;30.90;;;15.32;;
21162;SDS011;10739;52.198;20.908;2023-03-16T03:19:37;36.88;;;15.88;;
21162;SDS011;10739;52.198;20.908;2023-03-16T03:22:04;30.83;;;15.40;;
21162;SDS011;10739;52.198;20.908;2023-03-16T03:24:31;36.30;;;16.17;;
21162;SDS011;10739;52.198;20.908;2023-03-16T03:27:00;36.13;;;16.33;;
21162;SDS011;10739;52.198;20.908;2023-03-16T03:29:31;34.03;;;16.27;;
21162;SDS011;10739;52.198;20.908;2023-03-16T03:32:11;36.63;;;17.55;;
21162;SDS011;10739;52.198;20.908;2023-03-16T03:35:00;39.85;;;17.70;;
21162;SDS011;10739;52.198;20.908;2023-03-16T03:37:27;41.30;;;18.77;;
21162;SDS011;10739;52.198;20.908;2023-03-16T03:39:53;37.08;;;18.02;;
21162;SDS011;10739;52.198;20.908;2023-03-16T03:42:19;41.13;;;18.58;;
21162;SDS011;10739;52.198;20.908;2023-03-16T03:44:48;39.35;;;17.73;;
21162;SDS011;10739;52.198;20.908;2023-03-16T03:47:17;42.75;;;18.90;;
21162;SDS011;10739;52.198;20.908;2023-03-16T03:49:44;38.58;;;18.50;;
21162;SDS011;10739;52.198;20.908;2023-03-16T03:52:11;38.63;;;17.60;;
21162;SDS011;10739;52.198;20.908;2023-03-16T03:54:37;35.17;;;18.05;;
21162;SDS011;10739;52.198;20.908;2023-03-16T03:57:03;39.03;;;18.52;;
21162;SDS011;10739;52.198;20.908;2023-03-16T03:59:30;39.72;;;18.42;;
21162;SDS011;10739;52.198;20.908;2023-03-16T04:02:07;45.45;;;19.15;;
21162;SDS011;10739;52.198;20.908;2023-03-16T04:04:38;42.70;;;19.60;;
21162;SDS011;10739;52.198;20.908;2023-03-16T04:07:06;39.83;;;18.15;;
21162;SDS011;10739;52.198;20.908;2023-03-16T04:09:33;42.35;;;19.98;;
21162;SDS011;10739;52.198;20.908;2023-03-16T04:12:01;43.67;;;19.50;;
21162;SDS011;10739;52.198;20.908;2023-03-16T04:14:30;43.90;;;20.05;;
21162;SDS011;10739;52.198;20.908;2023-03-16T04:16:57;44.28;;;19.08;;
21162;SDS011;10739;52.198;20.908;2023-03-16T04:19:24;40.90;;;20.40;;
21162;SDS011;10739;52.198;20.908;2023-03-16T04:21:50;44.88;;;20.55;;
21162;SDS011;10739;52.198;20.908;2023-03-16T04:24:17;42.33;;;19.50;;
21162;SDS011;10739;52.198;20.908;2023-03-16T04:26:44;42.47;;;19.27;;
21162;SDS011;10739;52.198;20.908;2023-03-16T04:29:11;39.65;;;18.98;;
21162;SDS011;10739;52.198;20.908;2023-03-16T04:31:44;41.63;;;18.77;;
21162;SDS011;10739;52.198;20.908;2023-03-16T04:34:10;39.08;;;18.23;;
21162;SDS011;10739;52.198;20.908;2023-03-16T04:36:38;35.38;;;17.58;;
21162;SDS011;10739;52.198;20.908;2023-03-16T04:39:06;37.33;;;18.25;;
21162;SDS011;10739;52.198;20.908;2023-03-16T04:41:33;38.90;;;19.25;;
21162;SDS011;10739;52.198;20.908;2023-03-16T04:43:59;43.72;;;19.50;;
21162;SDS011;10739;52.198;20.908;2023-03-16T04:46:25;41.17;;;18.75;;
21162;SDS011;10739;52.198;20.908;2023-03-16T04:48:52;45.35;;;20.25;;
21162;SDS011;10739;52.198;20.908;2023-03-16T04:51:22;41.00;;;19.45;;
21162;SDS011;10739;52.198;20.908;2023-03-16T04:53:49;44.40;;;20.33;;
21162;SDS011;10739;52.198;20.908;2023-03-16T04:56:16;45.88;;;21.75;;
21162;SDS011;10739;52.198;20.908;2023-03-16T04:58:43;40.00;;;21.15;;
21162;SDS011;10739;52.198;20.908;2023-03-16T05:01:12;38.17;;;21.13;;
21162;SDS011;10739;52.198;20.908;2023-03-16T05:03:39;47.55;;;22.45;;
21162;SDS011;10739;52.198;20.908;2023-03-16T05:06:05;38.05;;;19.40;;
21162;SDS011;10739;52.198;20.908;2023-03-16T05:08:32;42.33;;;20.88;;
21162;SDS011;10739;52.198;20.908;2023-03-16T05:10:58;36.55;;;19.75;;
21162;SDS011;10739;52.198;20.908;2023-03-16T05:13:24;41.13;;;19.52;;
21162;SDS011;10739;52.198;20.908;2023-03-16T05:15:51;42.45;;;19.80;;
21162;SDS011;10739;52.198;20.908;2023-03-16T05:18:20;43.67;;;21.02;;
21162;SDS011;10739;52.198;20.908;2023-03-16T05:20:53;41.40;;;19.27;;
21162;SDS011;10739;52.198;20.908;2023-03-16T05:23:21;41.55;;;19.45;;
21162;SDS011;10739;52.198;20.908;2023-03-16T05:25:48;44.38;;;20.60;;
21162;SDS011;10739;52.198;20.908;2023-03-16T05:28:16;45.05;;;19.45;;
21162;SDS011;10739;52.198;20.908;2023-03-16T05:30:42;45.15;;;19.02;;
21162;SDS011;10739;52.198;20.908;2023-03-16T05:33:11;41.67;;;19.98;;
21162;SDS011;10739;52.198;20.908;2023-03-16T05:35:38;41.92;;;19.45;;
21162;SDS011;10739;52.198;20.908;2023-03-16T05:38:04;37.50;;;18.90;;
21162;SDS011;10739;52.198;20.908;2023-03-16T05:40:31;40.33;;;18.92;;
21162;SDS011;10739;52.198;20.908;2023-03-16T05:42:57;37.30;;;18.00;;
21162;SDS011;10739;52.198;20.908;2023-03-16T05:45:24;38.92;;;18.10;;
21162;SDS011;10739;52.198;20.908;2023-03-16T05:47:52;44.28;;;21.08;;
21162;SDS011;10739;52.198;20.908;2023-03-16T05:50:19;39.53;;;19.42;;
21162;SDS011;10739;52.198;20.908;2023-03-16T05:52:47;46.67;;;19.55;;
21162;SDS011;10739;52.198;20.908;2023-03-16T05:55:14;39.72;;;19.25;;
21162;SDS011;10739;52.198;20.908;2023-03-16T05:57:42;33.05;;;17.05;;
21162;SDS011;10739;52.198;20.908;2023-03-16T06:00:09;40.60;;;19.13;;
21162;SDS011;10739;52.198;20.908;2023-03-16T06:02:41;40.13;;;18.05;;
21162;SDS011;10739;52.198;20.908;2023-03-16T06:05:13;40.88;;;18.52;;
21162;SDS011;10739;52.198;20.908;2023-03-16T06:07:41;37.58;;;19.48;;
21162;SDS011;10739;52.198;20.908;2023-03-16T06:10:07;44.35;;;19.05;;
21162;SDS011;10739;52.198;20.908;2023-03-16T06:12:35;39.95;;;17.70;;
21162;SDS011;10739;52.198;20.908;2023-03-16T06:15:02;37.90;;;19.65;;
21162;SDS011;10739;52.198;20.908;2023-03-16T06:17:34;37.83;;;17.52;;
21162;SDS011;10739;52.198;20.908;2023-03-16T06:20:01;41.00;;;18.80;;
21162;SDS011;10739;52.198;20.908;2023-03-16T06:22:34;44.05;;;18.38;;
21162;SDS011;10739;52.198;20.908;2023-03-16T06:25:03;46.92;;;19.50;;
21162;SDS011;10739;52.198;20.908;2023-03-16T06:27:30;38.92;;;17.70;;
21162;SDS011;10739;52.198;20.908;2023-03-16T06:29:56;36.08;;;18.90;;
21162;SDS011;10739;52.198;20.908;2023-03-16T06:32:23;41.95;;;18.38;;
21162;SDS011;10739;52.198;20.908;2023-03-16T06:34:49;40.38;;;19.35;;
21162;SDS011;10739;52.198;20.908;2023-03-16T06:37:15;40.53;;;18.63;;
21162;SDS011;10739;52.198;20.908;2023-03-16T06:39:42;44.67;;;18.30;;
21162;SDS011;10739;52.198;20.908;2023-03-16T06:42:09;47.42;;;18.77;;
21162;SDS011;10739;52.198;20.908;2023-03-16T06:44:36;39.50;;;19.33;;
21162;SDS011;10739;52.198;20.908;2023-03-16T06:47:02;37.15;;;19.17;;
21162;SDS011;10739;52.198;20.908;2023-03-16T06:49:29;45.50;;;18.42;;
21162;SDS011;10739;52.198;20.908;2023-03-16T06:51:55;34.53;;;17.08;;
21162;SDS011;10739;52.198;20.908;2023-03-16T06:54:23;40.42;;;18.30;;
21162;SDS011;10739;52.198;20.908;2023-03-16T06:56:49;36.85;;;17.75;;
21162;SDS011;10739;52.198;20.908;2023-03-16T06:59:16;37.78;;;17.35;;
21162;SDS011;10739;52.198;20.908;2023-03-16T07:01:43;41.47;;;18.27;;
21162;SDS011;10739;52.198;20.908;2023-03-16T07:04:09;37.42;;;17.52;;
21162;SDS011;10739;52.198;20.908;2023-03-16T07:06:37;47.15;;;17.60;;
21162;SDS011;10739;52.198;20.908;2023-03-16T07:09:03;38.80;;;17.60;;
21162;SDS011;10739;52.198;20.908;2023-03-16T07:11:30;33.10;;;16.50;;
21162;SDS011;10739;52.198;20.908;2023-03-16T07:13:57;38.58;;;16.65;;
21162;SDS011;10739;52.198;20.908;2023-03-16T07:16:23;33.33;;;16.00;;
21162;SDS011;10739;52.198;20.908;2023-03-16T07:18:50;33.50;;;16.95;;
21162;SDS011;10739;52.198;20.908;2023-03-16T07:21:16;36.67;;;16.65;;
21162;SDS011;10739;52.198;20.908;2023-03-16T07:23:43;30.83;;;15.75;;
21162;SDS011;10739;52.198;20.908;2023-03-16T07:26:10;32.58;;;15.85;;
21162;SDS011;10739;52.198;20.908;2023-03-16T07:28:37;36.72;;;16.73;;
21162;SDS011;10739;52.198;20.908;2023-03-16T07:31:04;31.13;;;16.38;;
21162;SDS011;10739;52.198;20.908;2023-03-16T07:33:32;38.38;;;17.65;;
21162;SDS011;10739;52.198;20.908;2023-03-16T07:35:59;30.85;;;15.10;;
21162;SDS011;10739;52.198;20.908;2023-03-16T07:38:29;40.03;;;17.60;;
21162;SDS011;10739;52.198;20.908;2023-03-16T07:40:57;30.27;;;15.63;;
21162;SDS011;10739;52.198;20.908;2023-03-16T07:43:26;33.28;;;17.90;;
21162;SDS011;10739;52.198;20.908;2023-03-16T07:45:53;41.30;;;19.05;;
21162;SDS011;10739;52.198;20.908;2023-03-16T07:48:20;30.30;;;16.35;;
21162;SDS011;10739;52.198;20.908;2023-03-16T07:50:47;33.80;;;17.08;;
21162;SDS011;10739;52.198;20.908;2023-03-16T07:53:14;32.40;;;18.33;;
21162;SDS011;10739;52.198;20.908;2023-03-16T07:55:41;32.05;;;17.60;;
21162;SDS011;10739;52.198;20.908;2023-03-16T07:58:08;36.30;;;17.33;;
21162;SDS011;10739;52.198;20.908;2023-03-16T08:00:36;32.15;;;18.42;;
21162;SDS011;10739;52.198;20.908;2023-03-16T08:03:03;38.10;;;16.73;;
21162;SDS011;10739;52.198;20.908;2023-03-16T08:05:30;47.38;;;18.40;;
21162;SDS011;10739;52.198;20.908;2023-03-16T08:07:57;34.55;;;16.55;;
21162;SDS011;10739;52.198;20.908;2023-03-16T08:10:23;30.92;;;16.23;;
21162;SDS011;10739;52.198;20.908;2023-03-16T08:12:50;34.15;;;17.73;;
21162;SDS011;10739;52.198;20.908;2023-03-16T08:15:16;33.72;;;17.67;;
21162;SDS011;10739;52.198;20.908;2023-03-16T08:17:43;37.00;;;17.23;;
21162;SDS011;10739;52.198;20.908;2023-03-16T08:20:10;31.33;;;18.15;;
21162;SDS011;10739;52.198;20.908;2023-03-16T08:22:39;26.00;;;15.35;;
21162;SDS011;10739;52.198;20.908;2023-03-16T08:25:11;30.58;;;17.40;;
21162;SDS011;10739;52.198;20.908;2023-03-16T08:27:38;34.25;;;17.05;;
21162;SDS011;10739;52.198;20.908;2023-03-16T08:30:06;27.25;;;14.50;;
21162;SDS011;10739;52.198;20.908;2023-03-16T08:32:35;29.98;;;15.95;;
21162;SDS011;10739;52.198;20.908;2023-03-16T08:35:04;23.17;;;11.70;;
21162;SDS011;10739;52.198;20.908;2023-03-16T08:37:40;22.58;;;13.65;;
21162;SDS011;10739;52.198;20.908;2023-03-16T08:40:09;26.30;;;14.05;;
21162;SDS011;10739;52.198;20.908;2023-03-16T08:42:38;28.88;;;14.48;;
21162;SDS011;10739;52.198;20.908;2023-03-16T08:45:05;28.15;;;13.48;;
21162;SDS011;10739;52.198;20.908;2023-03-16T08:47:34;23.75;;;12.98;;
21162;SDS011;10739;52.198;20.908;2023-03-16T08:50:02;24.90;;;13.90;;
21162;SDS011;10739;52.198;20.908;2023-03-16T08:52:30;29.80;;;14.65;;
21162;SDS011;10739;52.198;20.908;2023-03-16T08:54:59;25.15;;;14.02;;
21162;SDS011;10739;52.198;20.908;2023-03-16T08:57:25;25.38;;;13.05;;
21162;SDS011;10739;52.198;20.908;2023-03-16T08:59:51;20.33;;;11.30;;
21162;SDS011;10739;52.198;20.908;2023-03-16T09:02:17;23.88;;;11.68;;
21162;SDS011;10739;52.198;20.908;2023-03-16T09:04:45;22.13;;;10.18;;
21162;SDS011;10739;52.198;20.908;2023-03-16T09:07:11;23.50;;;10.45;;
21162;SDS011;10739;52.198;20.908;2023-03-16T09:09:37;20.70;;;10.45;;
21162;SDS011;10739;52.198;20.908;2023-03-16T09:12:04;18.10;;;9.63;;
21162;SDS011;10739;52.198;20.908;2023-03-16T09:14:31;17.80;;;9.85;;
21162;SDS011;10739;52.198;20.908;2023-03-16T09:16:57;14.38;;;8.60;;
21162;SDS011;10739;52.198;20.908;2023-03-16T09:19:24;19.55;;;8.13;;
21162;SDS011;10739;52.198;20.908;2023-03-16T09:21:50;14.85;;;7.30;;
21162;SDS011;10739;52.198;20.908;2023-03-16T09:24:17;11.02;;;5.03;;
21162;SDS011;10739;52.198;20.908;2023-03-16T09:26:44;12.65;;;6.75;;
21162;SDS011;10739;52.198;20.908;2023-03-16T09:29:10;14.15;;;6.82;;
21162;SDS011;10739;52.198;20.908;2023-03-16T09:31:37;16.52;;;7.65;;
21162;SDS011;10739;52.198;20.908;2023-03-16T09:34:03;12.57;;;6.85;;
21162;SDS011;10739;52.198;20.908;2023-03-16T09:36:30;12.13;;;6.13;;
21162;SDS011;10739;52.198;20.908;2023-03-16T09:38:57;16.05;;;7.18;;
21162;SDS011;10739;52.198;20.908;2023-03-16T09:41:34;14.02;;;6.40;;
21162;SDS011;10739;52.198;20.908;2023-03-16T09:47:04;9.40;;;5.00;;
21162;SDS011;10739;52.198;20.908;2023-03-16T09:49:36;15.20;;;5.35;;
21162;SDS011;10739;52.198;20.908;2023-03-16T09:52:21;9.57;;;5.22;;
21162;SDS011;10739;52.198;20.908;2023-03-16T09:57:56;10.73;;;4.90;;
21162;SDS011;10739;52.198;20.908;2023-03-16T10:00:25;9.57;;;3.95;;
21162;SDS011;10739;52.198;20.908;2023-03-16T10:06:01;8.05;;;4.00;;
21162;SDS011;10739;52.198;20.908;2023-03-16T10:08:36;12.25;;;4.47;;
21162;SDS011;10739;52.198;20.908;2023-03-16T10:11:10;11.00;;;4.80;;
21162;SDS011;10739;52.198;20.908;2023-03-16T10:14:20;10.52;;;5.15;;
21162;SDS011;10739;52.198;20.908;2023-03-16T10:17:05;8.97;;;4.00;;
21162;SDS011;10739;52.198;20.908;2023-03-16T10:20:03;10.02;;;3.90;;
21162;SDS011;10739;52.198;20.908;2023-03-16T10:22:41;7.55;;;3.78;;
21162;SDS011;10739;52.198;20.908;2023-03-16T10:25:32;6.60;;;4.47;;
21162;SDS011;10739;52.198;20.908;2023-03-16T10:28:09;11.05;;;5.15;;
21162;SDS011;10739;52.198;20.908;2023-03-16T10:30:48;12.63;;;5.93;;
21162;SDS011;10739;52.198;20.908;2023-03-16T10:33:27;9.70;;;5.82;;
21162;SDS011;10739;52.198;20.908;2023-03-16T10:35:59;15.82;;;5.13;;
21162;SDS011;10739;52.198;20.908;2023-03-16T10:38:55;15.93;;;5.35;;
21162;SDS011;10739;52.198;20.908;2023-03-16T10:41:29;12.80;;;5.25;;
21162;SDS011;10739;52.198;20.908;2023-03-16T10:43:58;17.65;;;6.70;;
21162;SDS011;10739;52.198;20.908;2023-03-16T10:46:37;12.75;;;5.25;;
21162;SDS011;10739;52.198;20.908;2023-03-16T10:55:25;17.70;;;6.00;;
21162;SDS011;10739;52.198;20.908;2023-03-16T10:57:56;17.23;;;5.53;;
21162;SDS011;10739;52.198;20.908;2023-03-16T11:00:33;12.68;;;4.40;;
21162;SDS011;10739;52.198;20.908;2023-03-16T11:03:12;15.68;;;5.20;;
21162;SDS011;10739;52.198;20.908;2023-03-16T11:05:56;13.23;;;5.63;;
21162;SDS011;10739;52.198;20.908;2023-03-16T11:11:09;13.07;;;4.75;;
21162;SDS011;10739;52.198;20.908;2023-03-16T11:13:46;10.35;;;4.88;;
21162;SDS011;10739;52.198;20.908;2023-03-16T11:16:20;13.95;;;5.30;;
21162;SDS011;10739;52.198;20.908;2023-03-16T11:19:18;15.27;;;5.55;;
21162;SDS011;10739;52.198;20.908;2023-03-16T11:27:09;18.40;;;3.83;;
21162;SDS011;10739;52.198;20.908;2023-03-16T11:32:30;12.38;;;4.10;;
21162;SDS011;10739;52.198;20.908;2023-03-16T11:35:11;10.90;;;4.25;;
21162;SDS011;10739;52.198;20.908;2023-03-16T11:37:50;13.35;;;4.88;;
21162;SDS011;10739;52.198;20.908;2023-03-16T11:40:47;11.25;;;4.28;;
21162;SDS011;10739;52.198;20.908;2023-03-16T11:44:09;11.93;;;4.10;;
21162;SDS011;10739;52.198;20.908;2023-03-16T11:46:30;10.32;;;4.47;;
21162;SDS011;10739;52.198;20.908;2023-03-16T11:52:31;12.43;;;4.32;;
21162;SDS011;10739;52.198;20.908;2023-03-16T12:07:05;19.45;;;4.95;;
21162;SDS011;10739;52.198;20.908;2023-03-16T12:18:00;15.98;;;5.15;;
21162;SDS011;10739;52.198;20.908;2023-03-16T12:20:39;12.15;;;5.05;;
21162;SDS011;10739;52.198;20.908;2023-03-16T12:23:37;16.42;;;4.03;;
21162;SDS011;10739;52.198;20.908;2023-03-16T12:26:18;8.85;;;4.43;;
21162;SDS011;10739;52.198;20.908;2023-03-16T12:28:50;12.23;;;4.23;;
21162;SDS011;10739;52.198;20.908;2023-03-16T12:31:22;14.30;;;4.63;;
21162;SDS011;10739;52.198;20.908;2023-03-16T12:34:24;16.27;;;5.72;;
21162;SDS011;10739;52.198;20.908;2023-03-16T12:43:21;11.40;;;3.97;;
21162;SDS011;10739;52.198;20.908;2023-03-16T12:46:12;13.70;;;4.85;;
21162;SDS011;10739;52.198;20.908;2023-03-16T12:48:56;13.38;;;5.00;;
21162;SDS011;10739;52.198;20.908;2023-03-16T12:51:37;10.68;;;3.78;;
21162;SDS011;10739;52.198;20.908;2023-03-16T12:54:19;11.80;;;3.92;;
21162;SDS011;10739;52.198;20.908;2023-03-16T12:56:49;14.82;;;4.63;;
21162;SDS011;10739;52.198;20.908;2023-03-16T12:59:22;13.00;;;3.67;;
21162;SDS011;10739;52.198;20.908;2023-03-16T13:01:51;16.75;;;4.03;;
21162;SDS011;10739;52.198;20.908;2023-03-16T13:04:33;10.38;;;4.05;;
21162;SDS011;10739;52.198;20.908;2023-03-16T13:09:41;15.68;;;4.20;;
21162;SDS011;10739;52.198;20.908;2023-03-16T13:12:48;13.05;;;3.83;;
21162;SDS011;10739;52.198;20.908;2023-03-16T13:17:48;13.05;;;4.15;;
21162;SDS011;10739;52.198;20.908;2023-03-16T13:20:58;15.63;;;4.32;;
21162;SDS011;10739;52.198;20.908;2023-03-16T13:23:51;14.10;;;4.07;;
21162;SDS011;10739;52.198;20.908;2023-03-16T13:31:50;16.27;;;4.28;;
21162;SDS011;10739;52.198;20.908;2023-03-16T13:34:22;11.88;;;4.45;;
21162;SDS011;10739;52.198;20.908;2023-03-16T13:37:13;16.33;;;4.63;;
21162;SDS011;10739;52.198;20.908;2023-03-16T13:40:15;11.27;;;3.85;;
21162;SDS011;10739;52.198;20.908;2023-03-16T13:43:14;14.38;;;3.83;;
21162;SDS011;10739;52.198;20.908;2023-03-16T13:46:13;13.50;;;4.90;;
21162;SDS011;10739;52.198;20.908;2023-03-16T13:49:05;15.63;;;4.17;;
21162;SDS011;10739;52.198;20.908;2023-03-16T13:51:51;14.23;;;4.00;;
21162;SDS011;10739;52.198;20.908;2023-03-16T13:54:38;14.68;;;4.07;;
21162;SDS011;10739;52.198;20.908;2023-03-16T13:57:27;10.35;;;3.88;;
21162;SDS011;10739;52.198;20.908;2023-03-16T14:00:27;9.70;;;4.50;;
21162;SDS011;10739;52.198;20.908;2023-03-16T14:03:19;18.50;;;4.32;;
21162;SDS011;10739;52.198;20.908;2023-03-16T14:06:07;11.20;;;4.82;;
21162;SDS011;10739;52.198;20.908;2023-03-16T14:09:16;16.73;;;4.63;;
21162;SDS011;10739;52.198;20.908;2023-03-16T14:12:12;19.90;;;4.97;;
21162;SDS011;10739;52.198;20.908;2023-03-16T14:15:03;16.00;;;3.50;;
21162;SDS011;10739;52.198;20.908;2023-03-16T14:17:52;18.42;;;4.07;;
21162;SDS011;10739;52.198;20.908;2023-03-16T14:20:46;18.55;;;4.13;;
21162;SDS011;10739;52.198;20.908;2023-03-16T14:23:44;14.10;;;3.38;;
21162;SDS011;10739;52.198;20.908;2023-03-16T14:26:41;18.17;;;4.35;;
21162;SDS011;10739;52.198;20.908;2023-03-16T14:32:21;8.82;;;4.70;;
21162;SDS011;10739;52.198;20.908;2023-03-16T14:35:16;17.40;;;4.18;;
21162;SDS011;10739;52.198;20.908;2023-03-16T14:41:28;10.30;;;3.35;;
21162;SDS011;10739;52.198;20.908;2023-03-16T14:44:17;11.25;;;3.65;;
21162;SDS011;10739;52.198;20.908;2023-03-16T14:47:10;10.20;;;3.47;;
21162;SDS011;10739;52.198;20.908;2023-03-16T14:50:14;10.18;;;3.38;;
21162;SDS011;10739;52.198;20.908;2023-03-16T14:53:08;10.20;;;3.55;;
21162;SDS011;10739;52.198;20.908;2023-03-16T14:55:55;7.82;;;3.15;;
21162;SDS011;10739;52.198;20.908;2023-03-16T14:58:43;13.68;;;3.53;;
21162;SDS011;10739;52.198;20.908;2023-03-16T15:01:30;10.10;;;2.80;;
21162;SDS011;10739;52.198;20.908;2023-03-16T15:04:18;15.05;;;3.55;;
21162;SDS011;10739;52.198;20.908;2023-03-16T15:07:26;9.02;;;2.90;;
21162;SDS011;10739;52.198;20.908;2023-03-16T15:13:10;10.95;;;3.38;;
21162;SDS011;10739;52.198;20.908;2023-03-16T15:16:19;15.40;;;3.80;;
21162;SDS011;10739;52.198;20.908;2023-03-16T15:19:07;8.43;;;3.30;;
21162;SDS011;10739;52.198;20.908;2023-03-16T15:21:54;9.52;;;3.58;;
21162;SDS011;10739;52.198;20.908;2023-03-16T15:24:42;9.20;;;3.38;;
21162;SDS011;10739;52.198;20.908;2023-03-16T15:27:31;7.75;;;3.00;;
21162;SDS011;10739;52.198;20.908;2023-03-16T15:30:24;9.15;;;2.70;;
21162;SDS011;10739;52.198;20.908;2023-03-16T15:33:13;7.22;;;2.75;;
21162;SDS011;10739;52.198;20.908;2023-03-16T15:35:40;7.10;;;3.08;;
21162;SDS011;10739;52.198;20.908;2023-03-16T15:38:30;12.25;;;2.97;;
21162;SDS011;10739;52.198;20.908;2023-03-16T15:41:01;10.23;;;2.92;;
21162;SDS011;10739;52.198;20.908;2023-03-16T15:43:28;5.35;;;2.90;;
21162;SDS011;10739;52.198;20.908;2023-03-16T15:45:56;10.73;;;2.90;;
21162;SDS011;10739;52.198;20.908;2023-03-16T15:48:26;11.23;;;2.97;;
21162;SDS011;10739;52.198;20.908;2023-03-16T15:50:53;6.53;;;3.00;;
21162;SDS011;10739;52.198;20.908;2023-03-16T15:53:27;6.60;;;2.97;;
21162;SDS011;10739;52.198;20.908;2023-03-16T15:56:09;7.88;;;2.42;;
21162;SDS011;10739;52.198;20.908;2023-03-16T15:58:42;10.38;;;3.10;;
21162;SDS011;10739;52.198;20.908;2023-03-16T16:01:21;13.23;;;3.30;;
21162;SDS011;10739;52.198;20.908;2023-03-16T16:03:50;12.32;;;3.80;;
21162;SDS011;10739;52.198;20.908;2023-03-16T16:06:18;9.05;;;2.90;;
21162;SDS011;10739;52.198;20.908;2023-03-16T16:08:45;8.52;;;2.53;;
21162;SDS011;10739;52.198;20.908;2023-03-16T16:11:16;5.10;;;2.55;;
21162;SDS011;10739;52.198;20.908;2023-03-16T16:13:50;5.00;;;2.30;;
21162;SDS011;10739;52.198;20.908;2023-03-16T16:16:18;9.52;;;2.33;;